Time;durP1;ratioP1;P1;durP2;ratioP2;P2;SDS_P1;SDS_P2;PMS_P1;PMS_P2;Temp;Humidity;BMP_temperature;BMP_pressure;BME280_temperature;BME280_humidity;BME280_pressure;Samples;Min_cycle;Max_cycle;Signal;HPM_P1;HPM_P2
2022/07/10 00:01:04;;;;;;;3.50;1.80;;;;;;;;;;5012477;28;20367;-79
2022/07/10 00:03:30;;;;;;;3.15;2.13;;;;;;;;;;5012632;28;20029;-80
2022/07/10 00:05:55;;;;;;;5.75;1.95;;;;;;;;;;5010839;28;20027;-79
2022/07/10 00:08:21;;;;;;;3.22;2.10;;;;;;;;;;5011265;28;20041;-77
2022/07/10 00:10:46;;;;;;;3.60;2.25;;;;;;;;;;5012430;28;20068;-77
2022/07/10 00:13:11;;;;;;;4.35;1.55;;;;;;;;;;5012145;28;20037;-77
2022/07/10 00:15:37;;;;;;;4.03;1.73;;;;;;;;;;5011532;28;20058;-78
2022/07/10 00:18:03;;;;;;;3.97;1.73;;;;;;;;;;5011531;28;20092;-78
2022/07/10 00:20:28;;;;;;;3.50;2.03;;;;;;;;;;5014436;28;20026;-78
2022/07/10 00:22:55;;;;;;;2.28;1.98;;;;;;;;;;5012480;28;20026;-78
2022/07/10 00:25:20;;;;;;;5.53;2.05;;;;;;;;;;5015577;28;20081;-78
2022/07/10 00:27:46;;;;;;;3.20;2.50;;;;;;;;;;5036886;28;20481;-77
2022/07/10 00:30:11;;;;;;;4.80;2.15;;;;;;;;;;5027498;28;20102;-76
2022/07/10 00:32:37;;;;;;;3.53;2.00;;;;;;;;;;5018031;28;20022;-79
2022/07/10 00:35:03;;;;;;;3.45;2.03;;;;;;;;;;5011669;28;20500;-79
2022/07/10 00:37:29;;;;;;;3.33;1.70;;;;;;;;;;5016205;28;20390;-78
2022/07/10 00:39:54;;;;;;;3.05;2.03;;;;;;;;;;5010148;28;20029;-78
2022/07/10 00:42:21;;;;;;;7.72;2.40;;;;;;;;;;5012243;28;20033;-78
2022/07/10 00:44:47;;;;;;;6.68;2.60;;;;;;;;;;5010470;28;20507;-78
2022/07/10 00:47:14;;;;;;;7.00;2.80;;;;;;;;;;5011553;28;20129;-78
2022/07/10 00:49:39;;;;;;;9.00;2.80;;;;;;;;;;5010696;28;20025;-78
2022/07/10 00:52:11;;;;;;;2.72;2.40;;;;;;;;;;5010234;28;20478;-77
2022/07/10 00:54:42;;;;;;;6.85;2.72;;;;;;;;;;5010209;28;20390;-77
2022/07/10 00:57:08;;;;;;;4.05;2.33;;;;;;;;;;5010048;28;20192;-77
2022/07/10 00:59:35;;;;;;;5.00;2.75;;;;;;;;;;5011467;28;20477;-79
2022/07/10 01:02:02;;;;;;;5.07;2.40;;;;;;;;;;5026577;28;20470;-78
2022/07/10 01:04:28;;;;;;;5.13;2.60;;;;;;;;;;5011184;28;20566;-79
2022/07/10 01:06:53;;;;;;;7.00;2.97;;;;;;;;;;5009606;28;20113;-78
2022/07/10 01:09:19;;;;;;;6.28;2.50;;;;;;;;;;5009934;28;20084;-78
2022/07/10 01:11:45;;;;;;;4.13;2.83;;;;;;;;;;5010309;28;20056;-80
2022/07/10 01:14:11;;;;;;;2.42;2.22;;;;;;;;;;5012070;28;20057;-79
2022/07/10 01:16:37;;;;;;;3.15;2.30;;;;;;;;;;5009992;28;20084;-78
2022/07/10 01:19:02;;;;;;;5.22;2.55;;;;;;;;;;5009672;28;20056;-78
2022/07/10 01:21:35;;;;;;;7.32;3.10;;;;;;;;;;5011086;28;20102;-78
2022/07/10 01:24:08;;;;;;;4.50;2.53;;;;;;;;;;5009285;28;20060;-78
2022/07/10 01:26:34;;;;;;;4.28;2.90;;;;;;;;;;5009602;28;20042;-78
2022/07/10 01:29:05;;;;;;;5.80;2.63;;;;;;;;;;5010648;28;20022;-78
2022/07/10 01:31:32;;;;;;;4.68;2.40;;;;;;;;;;5009509;28;20050;-79
2022/07/10 01:33:59;;;;;;;5.85;3.03;;;;;;;;;;5009864;28;20088;-79
2022/07/10 01:36:27;;;;;;;2.88;2.60;;;;;;;;;;5011332;28;20022;-78
2022/07/10 01:38:54;;;;;;;5.88;2.38;;;;;;;;;;5009696;28;20289;-77
2022/07/10 01:41:19;;;;;;;5.43;3.85;;;;;;;;;;5013118;28;20032;-78
2022/07/10 01:43:45;;;;;;;7.18;2.70;;;;;;;;;;5027515;28;20433;-77
2022/07/10 01:46:12;;;;;;;6.53;3.45;;;;;;;;;;5025278;28;20030;-78
2022/07/10 01:48:38;;;;;;;8.63;2.90;;;;;;;;;;5009200;28;20038;-77
2022/07/10 01:51:04;;;;;;;5.18;2.47;;;;;;;;;;5008540;28;20022;-78
2022/07/10 01:53:30;;;;;;;4.88;2.60;;;;;;;;;;5025003;28;20058;-79
2022/07/10 01:55:56;;;;;;;5.90;2.92;;;;;;;;;;5009119;28;20508;-79
2022/07/10 01:58:22;;;;;;;3.88;2.47;;;;;;;;;;5008894;28;20014;-79
2022/07/10 02:00:47;;;;;;;5.72;2.75;;;;;;;;;;5025324;28;20096;-79
2022/07/10 02:05:57;;;;;;;5.18;2.78;;;;;;;;;;5010557;28;20033;-78
2022/07/10 02:08:22;;;;;;;6.05;2.88;;;;;;;;;;5008913;28;20022;-79
2022/07/10 02:10:49;;;;;;;6.43;3.05;;;;;;;;;;5010324;28;20034;-78
2022/07/10 02:13:14;;;;;;;5.22;2.65;;;;;;;;;;5008832;28;20022;-77
2022/07/10 02:15:41;;;;;;;6.03;2.72;;;;;;;;;;5008938;28;20528;-79
2022/07/10 02:18:07;;;;;;;5.35;2.38;;;;;;;;;;5009142;28;20172;-80
2022/07/10 02:20:34;;;;;;;3.80;2.15;;;;;;;;;;5008913;28;20546;-79
2022/07/10 02:23:00;;;;;;;5.55;2.20;;;;;;;;;;5008668;28;20030;-78
2022/07/10 02:25:25;;;;;;;4.50;1.85;;;;;;;;;;5010175;28;20061;-79
2022/07/10 02:27:51;;;;;;;3.47;2.42;;;;;;;;;;5010036;28;20030;-79
2022/07/10 02:30:16;;;;;;;8.50;3.90;;;;;;;;;;5008424;28;20030;-79
2022/07/10 02:32:42;;;;;;;5.57;2.33;;;;;;;;;;5010004;28;20469;-78
2022/07/10 02:35:07;;;;;;;5.43;2.10;;;;;;;;;;5008365;28;20088;-78
2022/07/10 02:37:33;;;;;;;3.08;1.73;;;;;;;;;;5008784;28;20022;-79
2022/07/10 02:39:58;;;;;;;2.45;1.42;;;;;;;;;;5009908;28;20030;-79
2022/07/10 02:42:24;;;;;;;6.47;1.80;;;;;;;;;;5010204;28;20033;-78
2022/07/10 02:44:49;;;;;;;3.95;1.70;;;;;;;;;;5008685;28;20021;-78
2022/07/10 02:47:15;;;;;;;6.40;1.95;;;;;;;;;;5009560;28;20057;-78
2022/07/10 02:49:40;;;;;;;2.67;1.52;;;;;;;;;;5008685;28;20028;-79
2022/07/10 02:52:06;;;;;;;3.47;1.30;;;;;;;;;;5008026;28;20129;-78
2022/07/10 02:54:31;;;;;;;4.45;1.50;;;;;;;;;;5009933;28;20030;-78
2022/07/10 02:56:57;;;;;;;4.25;1.52;;;;;;;;;;5009478;28;20018;-77
2022/07/10 02:59:22;;;;;;;7.38;1.48;;;;;;;;;;5008857;28;20133;-78
2022/07/10 03:01:48;;;;;;;5.15;1.38;;;;;;;;;;5011479;28;20088;-79
2022/07/10 03:04:13;;;;;;;5.05;2.10;;;;;;;;;;5014866;28;20022;-78
2022/07/10 03:06:39;;;;;;;4.20;1.20;;;;;;;;;;5013539;28;20022;-77
2022/07/10 03:09:04;;;;;;;3.17;1.52;;;;;;;;;;5013924;28;20528;-79
2022/07/10 03:11:30;;;;;;;1.17;1.00;;;;;;;;;;5012063;28;20700;-78
2022/07/10 03:13:55;;;;;;;5.72;1.10;;;;;;;;;;5011961;28;20034;-78
2022/07/10 03:16:21;;;;;;;7.75;1.35;;;;;;;;;;4995645;28;20034;-79
2022/07/10 03:18:46;;;;;;;3.33;0.90;;;;;;;;;;5028668;28;20087;-77
2022/07/10 03:21:11;;;;;;;3.20;0.82;;;;;;;;;;5011548;28;20521;-77
2022/07/10 03:23:39;;;;;;;6.30;1.05;;;;;;;;;;5013188;28;20068;-78
2022/07/10 03:26:05;;;;;;;6.40;1.27;;;;;;;;;;5012815;28;20042;-77
2022/07/10 03:28:31;;;;;;;5.55;1.10;;;;;;;;;;5011915;28;20026;-78
2022/07/10 03:30:56;;;;;;;6.20;1.85;;;;;;;;;;5011776;28;20412;-78
2022/07/10 03:33:22;;;;;;;7.10;1.08;;;;;;;;;;5011791;28;20030;-78
2022/07/10 03:35:48;;;;;;;3.25;1.83;;;;;;;;;;5013286;28;20026;-77
2022/07/10 03:38:13;;;;;;;4.43;0.85;;;;;;;;;;5018895;28;20018;-78
2022/07/10 03:40:39;;;;;;;11.55;1.70;;;;;;;;;;5021684;28;20117;-78
2022/07/10 03:43:04;;;;;;;3.10;1.00;;;;;;;;;;5012049;28;20022;-78
2022/07/10 03:45:30;;;;;;;5.18;0.88;;;;;;;;;;5012294;28;20056;-77
2022/07/10 03:47:56;;;;;;;2.35;1.10;;;;;;;;;;5012177;28;20068;-77
2022/07/10 03:50:21;;;;;;;3.88;1.48;;;;;;;;;;5013909;28;20127;-78
2022/07/10 03:52:47;;;;;;;5.57;1.00;;;;;;;;;;5018136;28;20030;-76
2022/07/10 03:55:12;;;;;;;5.28;1.35;;;;;;;;;;5032122;28;20022;-78
2022/07/10 04:00:38;;;;;;;3.05;0.93;;;;;;;;;;5012894;28;20095;-77
2022/07/10 04:03:06;;;;;;;4.18;1.10;;;;;;;;;;5011269;28;20040;-78
2022/07/10 04:05:32;;;;;;;4.43;1.75;;;;;;;;;;5011777;28;20617;-79
2022/07/10 04:07:59;;;;;;;6.22;1.23;;;;;;;;;;5011807;28;20113;-77
2022/07/10 04:10:29;;;;;;;5.28;1.95;;;;;;;;;;5011202;28;20037;-78
2022/07/10 04:12:55;;;;;;;4.28;1.08;;;;;;;;;;5011093;28;20026;-78
2022/07/10 04:15:21;;;;;;;6.97;1.52;;;;;;;;;;5011175;28;20692;-78
2022/07/10 04:17:51;;;;;;;11.10;1.15;;;;;;;;;;5012427;28;20418;-78
2022/07/10 04:20:17;;;;;;;3.75;1.05;;;;;;;;;;5010818;28;20384;-78
2022/07/10 04:22:43;;;;;;;9.25;1.00;;;;;;;;;;5011016;28;20022;-78
2022/07/10 04:25:10;;;;;;;4.30;1.02;;;;;;;;;;5011700;28;20068;-78
2022/07/10 04:27:35;;;;;;;4.53;1.33;;;;;;;;;;5010764;28;20485;-78
2022/07/10 04:30:03;;;;;;;5.68;1.27;;;;;;;;;;5012632;28;20022;-78
2022/07/10 04:32:28;;;;;;;7.35;1.33;;;;;;;;;;5012181;28;20460;-78
2022/07/10 04:34:56;;;;;;;6.57;1.30;;;;;;;;;;5027180;28;20112;-78
2022/07/10 04:37:22;;;;;;;4.32;1.00;;;;;;;;;;5011771;28;20501;-78
2022/07/10 04:39:47;;;;;;;2.20;0.77;;;;;;;;;;5010562;28;20458;-78
2022/07/10 04:42:13;;;;;;;3.40;1.02;;;;;;;;;;5011861;28;20030;-79
2022/07/10 04:44:38;;;;;;;4.85;1.10;;;;;;;;;;5010984;28;20041;-77
2022/07/10 04:47:05;;;;;;;2.00;0.77;;;;;;;;;;5010309;28;20034;-78
2022/07/10 04:49:31;;;;;;;4.75;0.95;;;;;;;;;;5011837;28;20551;-78
2022/07/10 04:51:56;;;;;;;3.55;0.95;;;;;;;;;;5010431;28;20029;-78
2022/07/10 04:54:22;;;;;;;4.82;0.88;;;;;;;;;;5010199;28;20029;-79
2022/07/10 04:56:48;;;;;;;3.00;0.80;;;;;;;;;;5026977;28;20026;-78
2022/07/10 04:59:14;;;;;;;3.45;0.88;;;;;;;;;;5010117;28;20377;-78
2022/07/10 05:01:39;;;;;;;2.75;0.90;;;;;;;;;;5011770;28;20022;-79
2022/07/10 05:04:05;;;;;;;6.88;1.13;;;;;;;;;;5009979;28;20495;-79
2022/07/10 05:06:30;;;;;;;4.63;1.30;;;;;;;;;;5026667;28;20062;-78
2022/07/10 05:08:56;;;;;;;6.40;1.80;;;;;;;;;;5010215;28;20099;-78
2022/07/10 05:11:22;;;;;;;8.15;1.23;;;;;;;;;;5011679;28;20104;-78
2022/07/10 05:13:48;;;;;;;3.13;1.60;;;;;;;;;;5010139;28;20026;-77
2022/07/10 05:16:16;;;;;;;3.70;1.45;;;;;;;;;;5010383;28;20512;-78
2022/07/10 05:18:42;;;;;;;5.28;1.20;;;;;;;;;;5010361;28;20087;-77
2022/07/10 05:21:08;;;;;;;2.25;0.88;;;;;;;;;;5026637;28;20060;-78
2022/07/10 05:23:35;;;;;;;8.30;1.50;;;;;;;;;;5013212;28;20105;-78
2022/07/10 05:26:00;;;;;;;8.02;1.25;;;;;;;;;;5014375;28;20073;-76
2022/07/10 05:28:26;;;;;;;5.47;1.77;;;;;;;;;;5033190;28;20060;-76
2022/07/10 05:30:53;;;;;;;4.45;1.17;;;;;;;;;;5024333;28;20471;-76
2022/07/10 05:33:18;;;;;;;4.28;1.10;;;;;;;;;;5032849;28;20038;-76
2022/07/10 05:35:44;;;;;;;7.18;1.00;;;;;;;;;;5016397;28;20026;-78
2022/07/10 05:38:10;;;;;;;4.50;0.77;;;;;;;;;;5015871;28;20014;-76
2022/07/10 05:40:35;;;;;;;6.03;1.83;;;;;;;;;;5014905;28;20026;-77
2022/07/10 05:43:01;;;;;;;6.32;1.25;;;;;;;;;;5011332;28;20034;-78
2022/07/10 05:45:27;;;;;;;4.50;1.30;;;;;;;;;;5011640;28;20036;-79
2022/07/10 05:47:52;;;;;;;4.10;1.40;;;;;;;;;;5010451;28;20051;-78
2022/07/10 05:50:18;;;;;;;5.32;1.10;;;;;;;;;;5009300;28;20026;-75
2022/07/10 05:52:43;;;;;;;5.68;1.33;;;;;;;;;;5010895;28;20108;-75
2022/07/10 05:55:09;;;;;;;2.88;0.75;;;;;;;;;;5010492;28;20145;-74
2022/07/10 05:57:35;;;;;;;11.77;1.38;;;;;;;;;;5009525;28;20014;-75
2022/07/10 06:00:03;;;;;;;6.22;1.00;;;;;;;;;;5010411;28;20038;-75
2022/07/10 06:02:29;;;;;;;2.63;0.77;;;;;;;;;;5010488;28;20041;-75
2022/07/10 06:04:54;;;;;;;4.38;0.93;;;;;;;;;;5010754;28;20022;-74
2022/07/10 06:07:20;;;;;;;9.05;1.45;;;;;;;;;;5025294;28;20029;-74
2022/07/10 06:09:45;;;;;;;8.45;1.02;;;;;;;;;;5025497;28;20076;-75
2022/07/10 06:12:11;;;;;;;4.65;0.75;;;;;;;;;;5009213;28;20025;-74
2022/07/10 06:14:36;;;;;;;4.68;0.90;;;;;;;;;;5010524;28;20030;-75
2022/07/10 06:17:02;;;;;;;5.28;1.35;;;;;;;;;;5010144;28;20025;-75
2022/07/10 06:19:27;;;;;;;4.88;1.25;;;;;;;;;;5008629;28;20030;-75
2022/07/10 06:24:38;;;;;;;7.10;1.13;;;;;;;;;;4990803;28;20509;-74
2022/07/10 06:27:03;;;;;;;6.07;1.13;;;;;;;;;;4989325;28;20051;-75
2022/07/10 06:29:29;;;;;;;4.53;1.05;;;;;;;;;;4990871;28;20029;-75
2022/07/10 06:31:54;;;;;;;5.93;0.90;;;;;;;;;;4990803;28;20037;-75
2022/07/10 06:34:20;;;;;;;2.42;0.70;;;;;;;;;;4990372;28;20109;-74
2022/07/10 06:36:45;;;;;;;4.20;1.23;;;;;;;;;;4990732;28;20073;-74
2022/07/10 06:39:12;;;;;;;2.35;1.00;;;;;;;;;;4988356;28;20084;-75
2022/07/10 06:41:38;;;;;;;4.25;1.20;;;;;;;;;;4990241;28;20105;-75
2022/07/10 06:44:04;;;;;;;3.85;1.08;;;;;;;;;;4988885;28;20030;-75
2022/07/10 06:46:30;;;;;;;8.13;1.20;;;;;;;;;;4988744;28;20037;-75
2022/07/10 06:48:55;;;;;;;3.30;0.90;;;;;;;;;;4988985;28;20149;-75
2022/07/10 06:51:21;;;;;;;2.72;1.10;;;;;;;;;;4988773;28;20509;-74
2022/07/10 06:53:47;;;;;;;3.60;1.30;;;;;;;;;;4988852;28;20117;-75
2022/07/10 06:56:14;;;;;;;6.18;1.25;;;;;;;;;;4990135;28;20037;-75
2022/07/10 06:58:40;;;;;;;2.78;1.00;;;;;;;;;;4988898;28;20034;-75
2022/07/10 07:01:05;;;;;;;3.75;1.05;;;;;;;;;;4988977;28;20113;-75
2022/07/10 07:03:31;;;;;;;3.20;0.90;;;;;;;;;;4988761;28;20500;-76
2022/07/10 07:05:56;;;;;;;5.85;1.33;;;;;;;;;;4990138;28;20038;-76
2022/07/10 07:08:22;;;;;;;2.53;1.02;;;;;;;;;;4989735;28;20038;-74
2022/07/10 07:10:47;;;;;;;5.45;0.80;;;;;;;;;;4988662;28;20506;-75
2022/07/10 07:13:13;;;;;;;3.63;1.17;;;;;;;;;;4989956;28;20498;-75
2022/07/10 07:15:42;;;;;;;4.00;0.90;;;;;;;;;;4990044;28;20107;-74
2022/07/10 07:18:08;;;;;;;3.85;1.00;;;;;;;;;;4988800;28;20050;-74
2022/07/10 07:23:22;;;;;;;3.28;0.90;;;;;;;;;;4989846;28;20041;-75
2022/07/10 07:25:47;;;;;;;6.43;0.80;;;;;;;;;;4988220;28;20061;-75
2022/07/10 07:28:18;;;;;;;1.15;0.88;;;;;;;;;;4988550;28;20463;-75
2022/07/10 07:30:44;;;;;;;3.35;1.33;;;;;;;;;;4988530;28;20053;-75
2022/07/10 07:33:09;;;;;;;1.60;1.05;;;;;;;;;;4988551;28;20107;-74
2022/07/10 07:35:36;;;;;;;2.08;1.02;;;;;;;;;;4990036;28;20034;-75
2022/07/10 07:38:02;;;;;;;7.05;1.25;;;;;;;;;;4988814;28;20030;-74
2022/07/10 07:40:28;;;;;;;4.03;1.00;;;;;;;;;;4988290;28;20030;-74
2022/07/10 07:42:55;;;;;;;4.68;1.65;;;;;;;;;;4988637;28;20476;-76
2022/07/10 07:45:22;;;;;;;5.53;0.82;;;;;;;;;;4989682;28;20069;-75
2022/07/10 07:47:53;;;;;;;5.35;1.15;;;;;;;;;;4990002;28;20026;-74
2022/07/10 07:50:21;;;;;;;1.48;0.85;;;;;;;;;;4990912;28;20030;-74
2022/07/10 07:52:47;;;;;;;6.20;0.95;;;;;;;;;;4992135;28;20564;-74
2022/07/10 07:55:15;;;;;;;4.47;0.82;;;;;;;;;;4992939;28;20057;-74
2022/07/10 07:57:40;;;;;;;6.53;1.10;;;;;;;;;;4994936;28;20396;-74
2022/07/10 08:00:08;;;;;;;4.97;1.42;;;;;;;;;;4994892;28;20105;-75
2022/07/10 08:02:34;;;;;;;3.58;1.10;;;;;;;;;;4976764;28;20046;-74
2022/07/10 08:04:59;;;;;;;3.20;1.40;;;;;;;;;;4992843;28;20112;-74
2022/07/10 08:07:50;;;;;;;3.72;1.13;;;;;;;;;;4993595;28;20543;-75
2022/07/10 08:10:17;;;;;;;2.15;1.23;;;;;;;;;;4991225;28;20390;-75
2022/07/10 08:12:47;;;;;;;7.72;1.75;;;;;;;;;;4991487;28;20029;-75
2022/07/10 08:15:15;;;;;;;2.45;1.15;;;;;;;;;;4991469;28;20026;-75
2022/07/10 08:17:41;;;;;;;3.90;1.00;;;;;;;;;;4992621;28;20514;-75
2022/07/10 08:20:11;;;;;;;7.22;1.50;;;;;;;;;;4992459;28;20054;-75
2022/07/10 08:22:37;;;;;;;7.78;1.38;;;;;;;;;;4995926;28;20018;-75
2022/07/10 08:25:03;;;;;;;5.03;1.45;;;;;;;;;;5012416;28;20290;-75
2022/07/10 08:27:28;;;;;;;6.35;1.40;;;;;;;;;;5010855;28;20470;-75
2022/07/10 08:29:54;;;;;;;1.75;1.10;;;;;;;;;;5010764;28;20494;-76
2022/07/10 08:32:19;;;;;;;2.38;1.27;;;;;;;;;;5010619;28;20322;-75
2022/07/10 08:34:45;;;;;;;2.67;1.10;;;;;;;;;;5010557;28;20518;-75
2022/07/10 08:37:10;;;;;;;4.72;1.13;;;;;;;;;;5011782;28;20145;-75
2022/07/10 08:39:36;;;;;;;4.57;1.35;;;;;;;;;;5010191;28;20025;-75
2022/07/10 08:42:04;;;;;;;1.92;0.98;;;;;;;;;;5010239;28;20038;-74
2022/07/10 08:44:29;;;;;;;3.70;1.08;;;;;;;;;;5010358;28;20478;-75
2022/07/10 08:46:56;;;;;;;4.57;1.40;;;;;;;;;;5010874;28;20057;-75
2022/07/10 08:49:28;;;;;;;4.63;1.20;;;;;;;;;;5010443;28;20466;-75
2022/07/10 08:52:08;;;;;;;6.93;2.10;;;;;;;;;;5010446;28;20029;-75
2022/07/10 08:54:33;;;;;;;11.57;4.25;;;;;;;;;;5010624;28;20053;-75
2022/07/10 08:57:01;;;;;;;17.50;3.13;;;;;;;;;;5013712;28;20045;-75
2022/07/10 08:59:28;;;;;;;9.32;3.25;;;;;;;;;;5011399;28;20030;-75
2022/07/10 09:01:55;;;;;;;15.65;4.47;;;;;;;;;;5009961;28;20120;-76
2022/07/10 09:04:23;;;;;;;8.77;3.45;;;;;;;;;;5011437;28;20037;-75
2022/07/10 09:06:50;;;;;;;15.75;2.10;;;;;;;;;;5009962;28;20120;-75
2022/07/10 09:09:15;;;;;;;2.75;1.63;;;;;;;;;;5011463;28;20026;-75
2022/07/10 09:11:42;;;;;;;4.40;1.95;;;;;;;;;;5009840;28;20091;-75
2022/07/10 09:14:13;;;;;;;5.93;2.25;;;;;;;;;;5010042;28;20022;-75
2022/07/10 09:16:44;;;;;;;5.60;2.28;;;;;;;;;;5026114;28;20061;-75
2022/07/10 09:19:22;;;;;;;;;;;;;;;;;;5010404;28;20092;-75
2022/07/10 09:22:09;;;;;;;3.83;1.73;;;;;;;;;;5011005;28;20363;-75
2022/07/10 09:24:43;;;;;;;8.77;1.95;;;;;;;;;;5006261;28;20096;-75
2022/07/10 09:27:09;;;;;;;4.05;1.80;;;;;;;;;;4989767;28;20050;-75
2022/07/10 09:29:51;;;;;;;4.75;1.90;;;;;;;;;;4991223;28;20046;-74
2022/07/10 09:32:17;;;;;;;4.20;2.10;;;;;;;;;;4989851;28;20030;-76
2022/07/10 09:36:04;;;;;;;6.55;1.80;;;;;;;;;;4991020;28;20558;-74
2022/07/10 09:37:39;;;;;;;7.20;2.25;;;;;;;;;;4990928;28;20073;-75
2022/07/10 09:40:07;;;;;;;2.72;1.48;;;;;;;;;;4989839;28;20257;-75
2022/07/10 09:42:38;;;;;;;5.38;1.60;;;;;;;;;;4991004;28;20030;-75
2022/07/10 09:45:12;;;;;;;7.85;1.33;;;;;;;;;;4990623;28;20037;-75
2022/07/10 09:47:47;;;;;;;7.03;1.15;;;;;;;;;;5005665;28;20030;-75
2022/07/10 09:50:29;;;;;;;5.03;1.27;;;;;;;;;;5005919;28;20038;-76
2022/07/10 09:53:00;;;;;;;3.78;1.85;;;;;;;;;;5006151;28;20057;-75
2022/07/10 09:55:29;;;;;;;3.25;1.73;;;;;;;;;;4990910;28;20580;-75
2022/07/10 09:57:55;;;;;;;3.65;1.98;;;;;;;;;;4990897;28;20022;-75
2022/07/10 10:00:25;;;;;;;3.53;2.00;;;;;;;;;;4990892;28;20064;-75
2022/07/10 10:03:02;;;;;;;6.40;1.90;;;;;;;;;;4989319;28;20471;-75
2022/07/10 10:05:35;;;;;;;5.72;1.92;;;;;;;;;;4989339;28;20376;-75
2022/07/10 10:08:16;;;;;;;4.80;1.90;;;;;;;;;;4991171;28;20030;-76
2022/07/10 10:10:49;;;;;;;4.43;1.50;;;;;;;;;;4990865;28;20061;-75
2022/07/10 10:13:20;;;;;;;5.43;1.80;;;;;;;;;;4988417;28;20033;-76
2022/07/10 10:15:51;;;;;;;4.32;1.48;;;;;;;;;;4989086;28;20117;-76
2022/07/10 10:18:24;;;;;;;3.40;1.60;;;;;;;;;;4990581;28;20030;-75
2022/07/10 10:20:52;;;;;;;4.72;1.42;;;;;;;;;;4990748;28;20049;-74
2022/07/10 10:23:20;;;;;;;2.53;1.40;;;;;;;;;;4999379;28;20057;-75
2022/07/10 10:25:56;;;;;;;4.03;0.98;;;;;;;;;;5008431;28;20477;-75
2022/07/10 10:28:24;;;;;;;2.17;0.82;;;;;;;;;;5009329;28;20087;-73
2022/07/10 10:30:53;;;;;;;4.78;1.85;;;;;;;;;;5022575;28;20081;-75
2022/07/10 10:33:42;;;;;;;3.40;1.25;;;;;;;;;;5024030;28;20052;-76
2022/07/10 10:36:14;;;;;;;5.97;0.98;;;;;;;;;;5014919;28;20453;-73
2022/07/10 10:38:51;;;;;;;;;;;;;;;;;;5013755;28;20050;-74
2022/07/10 10:41:23;;;;;;;2.65;1.00;;;;;;;;;;5010521;28;20011;-76
2022/07/10 10:44:07;;;;;;;5.72;1.92;;;;;;;;;;5009233;28;20486;-75
2022/07/10 10:46:53;;;;;;;2.00;1.20;;;;;;;;;;5008817;28;20038;-76
2022/07/10 10:49:24;;;;;;;1.95;1.20;;;;;;;;;;5009187;28;20025;-75
2022/07/10 10:52:04;;;;;;;3.55;1.30;;;;;;;;;;5009813;28;20024;-76
2022/07/10 10:54:57;;;;;;;0.88;0.70;;;;;;;;;;5009779;28;20341;-75
2022/07/10 10:57:32;;;;;;;2.50;0.82;;;;;;;;;;5009815;28;20051;-75
2022/07/10 10:59:59;;;;;;;0.65;0.50;;;;;;;;;;5009629;28;20029;-75
2022/07/10 11:02:25;;;;;;;2.05;0.75;;;;;;;;;;5008200;28;20034;-75
2022/07/10 11:05:10;;;;;;;2.15;0.88;;;;;;;;;;5008422;28;20037;-75
2022/07/10 11:07:58;;;;;;;0.70;0.68;;;;;;;;;;5009524;28;20025;-75
2022/07/10 11:10:44;;;;;;;0.98;0.73;;;;;;;;;;5010011;28;20025;-76
2022/07/10 11:13:17;;;;;;;0.50;0.50;;;;;;;;;;5008436;28;20030;-75
2022/07/10 11:15:47;;;;;;;2.22;0.90;;;;;;;;;;5008085;28;20022;-75
2022/07/10 11:18:30;;;;;;;2.30;0.90;;;;;;;;;;5008411;28;20104;-75
2022/07/10 11:20:59;;;;;;;1.48;1.13;;;;;;;;;;5007973;28;20162;-75
2022/07/10 11:23:46;;;;;;;0.80;0.80;;;;;;;;;;5009729;28;20034;-75
2022/07/10 11:26:21;;;;;;;2.88;1.00;;;;;;;;;;5011773;28;20489;-76
2022/07/10 11:28:56;;;;;;;1.23;1.00;;;;;;;;;;5012044;28;20092;-75
2022/07/10 11:31:24;;;;;;;1.80;1.10;;;;;;;;;;5016464;28;20470;-76
2022/07/10 11:33:52;;;;;;;1.30;0.95;;;;;;;;;;5014574;28;20203;-75
2022/07/10 11:36:25;;;;;;;1.67;0.95;;;;;;;;;;5013129;28;20026;-74
2022/07/10 11:38:58;;;;;;;2.47;0.80;;;;;;;;;;5013786;28;20419;-76
2022/07/10 11:41:23;;;;;;;2.03;1.23;;;;;;;;;;5013840;28;20380;-75
2022/07/10 11:43:52;;;;;;;3.70;1.63;;;;;;;;;;5013214;28;20104;-75
2022/07/10 11:46:21;;;;;;;1.52;1.25;;;;;;;;;;5028200;28;20018;-74
2022/07/10 11:48:50;;;;;;;1.25;0.90;;;;;;;;;;5012790;28;20862;-75
2022/07/10 11:51:26;;;;;;;1.58;0.77;;;;;;;;;;5013286;28;20026;-75
2022/07/10 11:53:57;;;;;;;2.55;0.95;;;;;;;;;;5011319;28;20033;-75
2022/07/10 11:56:24;;;;;;;2.58;0.90;;;;;;;;;;5012036;28;20022;-75
2022/07/10 11:58:57;;;;;;;2.08;0.90;;;;;;;;;;5012760;28;20057;-75
2022/07/10 12:01:23;;;;;;;4.80;1.23;;;;;;;;;;5011647;28;20025;-75
2022/07/10 12:04:04;;;;;;;5.45;1.70;;;;;;;;;;5012365;28;20038;-75
2022/07/10 12:06:33;;;;;;;1.13;0.90;;;;;;;;;;5008878;28;20057;-76
2022/07/10 12:09:08;;;;;;;3.13;0.93;;;;;;;;;;5028126;28;20434;-75
2022/07/10 12:11:35;;;;;;;4.72;1.02;;;;;;;;;;5010930;28;20028;-75
2022/07/10 12:14:20;;;;;;;3.78;0.85;;;;;;;;;;5011145;28;20441;-76
2022/07/10 12:16:48;;;;;;;2.08;0.98;;;;;;;;;;5012606;28;20071;-75
2022/07/10 12:19:18;;;;;;;6.88;1.17;;;;;;;;;;5012904;28;20466;-75
2022/07/10 12:21:46;;;;;;;4.07;1.10;;;;;;;;;;5012535;28;20034;-74
2022/07/10 12:24:21;;;;;;;1.75;1.10;;;;;;;;;;5010950;28;20037;-75
2022/07/10 12:26:47;;;;;;;2.25;1.50;;;;;;;;;;5010664;28;20045;-75
2022/07/10 12:29:26;;;;;;;1.80;1.23;;;;;;;;;;5012139;28;20093;-74
2022/07/10 12:31:54;;;;;;;2.63;1.00;;;;;;;;;;5010396;28;20482;-77
2022/07/10 12:34:36;;;;;;;6.00;1.25;;;;;;;;;;5011949;28;20033;-75
2022/07/10 12:37:09;;;;;;;;;;;;;;;;;;5010300;28;20552;-74
2022/07/10 12:39:38;;;;;;;2.03;1.20;;;;;;;;;;5011887;28;19944;-75
2022/07/10 12:42:05;;;;;;;2.40;1.25;;;;;;;;;;5011880;28;20501;-75
2022/07/10 12:44:48;;;;;;;2.50;1.27;;;;;;;;;;5010831;28;20030;-75
2022/07/10 12:47:16;;;;;;;1.33;1.10;;;;;;;;;;5027009;28;20029;-75
2022/07/10 12:49:47;;;;;;;3.22;1.35;;;;;;;;;;4994061;28;20140;-76
2022/07/10 12:52:24;;;;;;;3.17;1.13;;;;;;;;;;5011474;28;20029;-75
2022/07/10 12:55:13;;;;;;;7.03;1.48;;;;;;;;;;4993779;28;20139;-75
2022/07/10 12:57:52;;;;;;;2.92;1.17;;;;;;;;;;5011619;28;20038;-75
2022/07/10 13:00:20;;;;;;;4.32;1.35;;;;;;;;;;5010195;28;20025;-75
2022/07/10 13:02:55;;;;;;;2.80;1.30;;;;;;;;;;5009606;28;20057;-75
2022/07/10 13:05:29;;;;;;;5.22;1.23;;;;;;;;;;5011901;28;20053;-75
2022/07/10 13:08:19;;;;;;;7.57;1.63;;;;;;;;;;5009520;28;20036;-75
2022/07/10 13:10:50;;;;;;;3.30;1.60;;;;;;;;;;5009919;28;20084;-75
2022/07/10 13:13:16;;;;;;;8.30;2.10;;;;;;;;;;5011201;28;20030;-75
2022/07/10 13:15:47;;;;;;;4.57;1.20;;;;;;;;;;5009808;28;20033;-75
2022/07/10 13:18:33;;;;;;;4.53;1.50;;;;;;;;;;5026327;28;20473;-76
2022/07/10 13:20:59;;;;;;;2.67;1.20;;;;;;;;;;5010527;28;20402;-75
2022/07/10 13:23:26;;;;;;;3.20;0.90;;;;;;;;;;5010737;28;20026;-75
2022/07/10 13:26:01;;;;;;;5.00;1.25;;;;;;;;;;5010584;28;20100;-75
2022/07/10 13:28:26;;;;;;;2.92;1.10;;;;;;;;;;5009515;28;20336;-75
2022/07/10 13:30:52;;;;;;;2.33;1.20;;;;;;;;;;5010852;28;20022;-76
2022/07/10 13:33:18;;;;;;;4.78;1.77;;;;;;;;;;5009607;28;20226;-76
2022/07/10 13:35:44;;;;;;;3.55;1.17;;;;;;;;;;5009583;28;20120;-75
2022/07/10 13:38:10;;;;;;;3.58;1.35;;;;;;;;;;5011443;28;20057;-75
2022/07/10 13:40:37;;;;;;;3.17;1.27;;;;;;;;;;5009425;28;20060;-75
2022/07/10 13:43:03;;;;;;;3.65;1.05;;;;;;;;;;5010856;28;20370;-75
2022/07/10 13:45:33;;;;;;;6.78;1.45;;;;;;;;;;5009348;28;20022;-75
2022/07/10 13:47:59;;;;;;;8.45;1.65;;;;;;;;;;5010766;28;20113;-75
2022/07/10 13:50:25;;;;;;;1.48;1.25;;;;;;;;;;5010835;28;20029;-75
2022/07/10 13:52:51;;;;;;;2.85;1.10;;;;;;;;;;5010606;28;20034;-76
2022/07/10 13:55:17;;;;;;;2.88;1.55;;;;;;;;;;5009178;28;20033;-76
2022/07/10 13:57:42;;;;;;;6.82;1.88;;;;;;;;;;5008909;28;20505;-75
2022/07/10 14:00:09;;;;;;;5.75;1.77;;;;;;;;;;5009179;28;20160;-76
2022/07/10 14:02:34;;;;;;;5.32;1.30;;;;;;;;;;4993221;28;20044;-76
2022/07/10 14:05:00;;;;;;;3.72;1.48;;;;;;;;;;5025379;28;20025;-74
2022/07/10 14:07:25;;;;;;;5.28;0.93;;;;;;;;;;5010206;28;20028;-75
2022/07/10 14:09:51;;;;;;;4.95;1.38;;;;;;;;;;5008490;28;20088;-75
2022/07/10 14:12:16;;;;;;;7.90;1.10;;;;;;;;;;5010367;28;20033;-76
2022/07/10 14:14:42;;;;;;;9.30;1.33;;;;;;;;;;5008767;28;20446;-75
2022/07/10 14:17:07;;;;;;;8.10;1.33;;;;;;;;;;5010408;28;20026;-76
2022/07/10 14:19:33;;;;;;;3.13;0.70;;;;;;;;;;5009001;28;20030;-75
2022/07/10 14:21:59;;;;;;;4.10;0.80;;;;;;;;;;5010206;28;20033;-76
2022/07/10 14:24:25;;;;;;;4.03;1.10;;;;;;;;;;5008577;28;20145;-76
2022/07/10 14:26:52;;;;;;;5.35;1.02;;;;;;;;;;5024716;28;20514;-76
2022/07/10 14:29:18;;;;;;;3.90;1.25;;;;;;;;;;5010087;28;20026;-76
2022/07/10 14:31:45;;;;;;;4.50;0.80;;;;;;;;;;5010138;28;20489;-75
2022/07/10 14:34:10;;;;;;;4.28;1.17;;;;;;;;;;5008639;28;20548;-76
2022/07/10 14:36:36;;;;;;;10.73;2.05;;;;;;;;;;5010127;28;20109;-75
2022/07/10 14:39:02;;;;;;;9.88;1.75;;;;;;;;;;5009848;28;20038;-78
2022/07/10 14:41:27;;;;;;;3.58;1.00;;;;;;;;;;5008294;28;20028;-78
2022/07/10 14:43:53;;;;;;;6.75;1.48;;;;;;;;;;5009689;28;20030;-77
2022/07/10 14:46:18;;;;;;;6.18;1.30;;;;;;;;;;5010173;28;20036;-78
2022/07/10 14:48:44;;;;;;;1.25;1.00;;;;;;;;;;5009585;28;20089;-76
2022/07/10 14:51:09;;;;;;;5.25;1.27;;;;;;;;;;5024934;28;20049;-77
2022/07/10 14:53:36;;;;;;;3.50;1.00;;;;;;;;;;5008303;28;20117;-77
2022/07/10 14:56:05;;;;;;;6.95;1.83;;;;;;;;;;5008365;28;20398;-79
2022/07/10 14:58:32;;;;;;;6.28;1.33;;;;;;;;;;5009969;28;20018;-78
2022/07/10 15:00:57;;;;;;;4.85;1.52;;;;;;;;;;5012145;28;20083;-78